Time;durP1;ratioP1;P1;durP2;ratioP2;P2;SDS_P1;SDS_P2;PMS_P1;PMS_P2;Temp;Humidity;BMP_temperature;BMP_pressure;BME280_temperature;BME280_humidity;BME280_pressure;Samples;Min_cycle;Max_cycle;Signal;HPM_P1;HPM_P2
2021/07/02 00:01:16;;;;;;;3.67;2.97;;;16.10;99.90;;;;;;5032194;28;20804;-50
2021/07/02 00:03:43;;;;;;;4.17;3.07;;;16.10;99.90;;;;;;5031873;28;20444;-50
2021/07/02 00:06:10;;;;;;;6.00;3.30;;;16.10;99.90;;;;;;5031908;28;20484;-50
2021/07/02 00:08:37;;;;;;;6.57;2.83;;;16.10;99.90;;;;;;5031850;28;20468;-50
2021/07/02 00:11:04;;;;;;;3.93;3.30;;;16.10;99.90;;;;;;5032307;28;20906;-49
2021/07/02 00:13:31;;;;;;;3.50;3.20;;;16.20;99.90;;;;;;5031611;28;20867;-50
2021/07/02 00:15:58;;;;;;;7.10;3.10;;;16.10;99.90;;;;;;5031875;28;20502;-49
2021/07/02 00:18:26;;;;;;;3.43;3.13;;;16.10;99.90;;;;;;5031681;28;20472;-50
2021/07/02 00:20:53;;;;;;;4.53;3.80;;;16.10;99.90;;;;;;5031732;28;20502;-50
2021/07/02 00:23:20;;;;;;;6.77;3.83;;;16.00;99.90;;;;;;5032329;28;20514;-49
2021/07/02 00:25:47;;;;;;;8.43;3.57;;;16.10;99.90;;;;;;5039317;28;20479;-49
2021/07/02 00:28:14;;;;;;;4.77;3.70;;;16.00;99.90;;;;;;5048077;28;20451;-50
2021/07/02 00:30:41;;;;;;;5.83;3.33;;;15.90;99.90;;;;;;5051512;28;20455;-50
2021/07/02 00:33:08;;;;;;;3.80;3.50;;;15.90;99.90;;;;;;5033318;28;20530;-50
2021/07/02 00:35:36;;;;;;;4.27;3.50;;;15.90;99.90;;;;;;5031495;28;20938;-50
2021/07/02 00:38:03;;;;;;;4.80;3.87;;;15.80;99.90;;;;;;5032501;28;20831;-50
2021/07/02 00:40:30;;;;;;;4.37;3.50;;;15.80;99.90;;;;;;5041238;28;20471;-49
2021/07/02 00:42:57;;;;;;;3.90;3.50;;;15.70;99.90;;;;;;5051091;28;20874;-50
2021/07/02 00:45:24;;;;;;;4.63;4.23;;;15.60;99.90;;;;;;5047798;28;20498;-50
2021/07/02 00:47:51;;;;;;;4.77;4.20;;;15.60;99.90;;;;;;5031492;28;20459;-50
2021/07/02 00:50:19;;;;;;;5.67;4.90;;;15.60;99.90;;;;;;5031139;28;21072;-50
2021/07/02 00:52:47;;;;;;;5.90;4.73;;;15.60;99.90;;;;;;5032230;28;20486;-50
2021/07/02 00:55:15;;;;;;;5.30;4.30;;;15.60;99.90;;;;;;5035492;28;20449;-50
2021/07/02 00:57:44;;;;;;;5.10;4.60;;;15.60;99.90;;;;;;5055140;28;20896;-50
2021/07/02 01:00:12;;;;;;;6.03;4.73;;;15.50;99.90;;;;;;5052506;28;20479;-49
2021/07/02 01:02:39;;;;;;;8.37;4.80;;;15.50;99.90;;;;;;5045885;28;20853;-50
2021/07/02 01:05:08;;;;;;;6.90;4.60;;;15.50;99.90;;;;;;5035138;28;20460;-50
2021/07/02 01:07:35;;;;;;;6.83;4.87;;;15.60;99.90;;;;;;5035222;28;20570;-49
2021/07/02 01:10:05;;;;;;;5.70;5.10;;;15.60;99.90;;;;;;5035011;28;20531;-50
2021/07/02 01:12:32;;;;;;;5.43;3.90;;;15.50;99.90;;;;;;5034891;28;20456;-50
2021/07/02 01:14:59;;;;;;;5.73;4.27;;;15.50;99.90;;;;;;5049037;28;20521;-50
2021/07/02 01:17:26;;;;;;;5.00;4.50;;;15.50;99.90;;;;;;5052934;28;20448;-50
2021/07/02 01:19:54;;;;;;;5.53;4.47;;;15.50;99.90;;;;;;5055046;28;20463;-50
2021/07/02 01:22:25;;;;;;;5.90;4.57;;;15.50;99.90;;;;;;5054750;28;20447;-50
2021/07/02 01:24:53;;;;;;;6.83;4.40;;;15.40;99.90;;;;;;5052807;28;20961;-50
2021/07/02 01:27:21;;;;;;;4.80;3.97;;;15.40;99.90;;;;;;5044588;28;20488;-49
2021/07/02 01:29:49;;;;;;;6.10;5.30;;;15.30;99.90;;;;;;5034692;28;20522;-50
2021/07/02 01:32:16;;;;;;;10.10;5.67;;;15.30;99.90;;;;;;5034443;28;20445;-49
2021/07/02 01:34:43;;;;;;;9.80;5.63;;;15.30;99.90;;;;;;5034801;28;20449;-50
2021/07/02 01:37:12;;;;;;;5.30;4.50;;;15.30;99.90;;;;;;5035608;28;20507;-49
2021/07/02 01:39:40;;;;;;;9.83;5.30;;;15.30;99.90;;;;;;5034400;28;21002;-50
2021/07/02 01:42:09;;;;;;;5.87;4.40;;;15.30;99.90;;;;;;5034296;28;20507;-50
2021/07/02 01:44:37;;;;;;;5.97;4.83;;;15.40;99.90;;;;;;5034606;28;20882;-50
2021/07/02 01:47:04;;;;;;;5.87;4.27;;;15.30;99.90;;;;;;5034695;28;20480;-50
2021/07/02 01:49:31;;;;;;;5.40;4.50;;;15.40;99.90;;;;;;5047336;22;20501;-58
2021/07/02 01:51:58;;;;;;;4.90;4.40;;;15.40;99.90;;;;;;5012574;28;20454;-58
2021/07/02 01:54:25;;;;;;;6.47;4.90;;;15.40;99.90;;;;;;5005680;28;20501;-57
2021/07/02 01:56:54;;;;;;;6.30;4.77;;;15.40;99.90;;;;;;5010543;28;20526;-58
2021/07/02 01:59:21;;;;;;;6.53;5.17;;;15.50;99.90;;;;;;5012745;28;20481;-57
2021/07/02 02:01:51;;;;;;;5.20;4.70;;;15.50;99.90;;;;;;5014397;28;20507;-58
2021/07/02 02:04:19;;;;;;;5.23;4.70;;;15.50;99.90;;;;;;5014225;28;20458;-58
2021/07/02 02:06:48;;;;;;;5.10;4.60;;;15.50;99.90;;;;;;5014474;28;20489;-58
2021/07/02 02:09:15;;;;;;;7.00;4.73;;;15.50;99.90;;;;;;5011736;28;20921;-58
2021/07/02 02:11:42;;;;;;;4.93;4.37;;;15.50;99.90;;;;;;5002438;28;20458;-58
2021/07/02 02:14:11;;;;;;;5.53;4.73;;;15.40;99.90;;;;;;5014268;28;20454;-58
2021/07/02 02:16:40;;;;;;;8.50;4.67;;;15.40;99.90;;;;;;5013978;28;20504;-58
2021/07/02 02:19:07;;;;;;;5.73;4.90;;;15.40;99.90;;;;;;5014065;28;20478;-58
2021/07/02 02:21:34;;;;;;;9.47;4.97;;;15.40;99.90;;;;;;5014121;28;20484;-58
2021/07/02 02:24:01;;;;;;;5.83;5.27;;;15.40;99.90;;;;;;5013802;28;20457;-58
2021/07/02 02:26:29;;;;;;;6.00;5.07;;;15.30;99.90;;;;;;5014254;28;20485;-58
2021/07/02 02:28:56;;;;;;;6.43;5.10;;;15.40;99.90;;;;;;5013699;28;20474;-58
2021/07/02 02:31:24;;;;;;;4.80;4.30;;;15.40;99.90;;;;;;5013900;28;20462;-58
2021/07/02 02:33:51;;;;;;;7.00;4.60;;;15.40;99.90;;;;;;5013700;28;20882;-58
2021/07/02 02:36:19;;;;;;;7.20;4.97;;;15.40;99.90;;;;;;5013858;28;20931;-58
2021/07/02 02:38:46;;;;;;;5.93;4.00;;;15.40;99.90;;;;;;5012989;28;20474;-58
2021/07/02 02:41:13;;;;;;;5.33;4.17;;;15.40;99.90;;;;;;5013754;28;20457;-58
2021/07/02 02:43:40;;;;;;;4.57;4.10;;;15.50;99.90;;;;;;5013279;28;20508;-58
2021/07/02 02:46:07;;;;;;;5.60;4.50;;;15.40;99.90;;;;;;5004284;28;20450;-58
2021/07/02 02:48:36;;;;;;;4.97;4.50;;;15.40;99.90;;;;;;5013136;28;20519;-58
2021/07/02 02:51:03;;;;;;;5.40;4.53;;;15.40;99.90;;;;;;5013688;28;20481;-58
2021/07/02 02:53:30;;;;;;;6.30;4.30;;;15.30;99.90;;;;;;5013355;28;21115;-58
2021/07/02 02:55:57;;;;;;;5.20;4.70;;;15.40;99.90;;;;;;5013735;28;20450;-58
2021/07/02 02:58:24;;;;;;;5.20;4.70;;;15.30;99.90;;;;;;5013693;28;20445;-58
2021/07/02 03:00:51;;;;;;;5.43;4.33;;;15.40;99.90;;;;;;5010999;28;20465;-58
2021/07/02 03:03:20;;;;;;;5.17;4.67;;;15.40;99.90;;;;;;5012683;28;20453;-58
2021/07/02 03:05:48;;;;;;;5.23;4.20;;;15.40;99.90;;;;;;5013374;28;20465;-58
2021/07/02 03:08:15;;;;;;;5.50;4.83;;;15.40;99.90;;;;;;5013514;28;20547;-58
2021/07/02 03:10:43;;;;;;;5.30;4.80;;;15.40;99.90;;;;;;5012250;28;20473;-58
2021/07/02 03:13:10;;;;;;;5.47;4.10;;;15.50;99.90;;;;;;5012721;28;21021;-58
2021/07/02 03:15:37;;;;;;;5.20;4.70;;;15.50;99.90;;;;;;5011155;28;20449;-58
2021/07/02 03:18:04;;;;;;;5.33;4.60;;;15.50;99.90;;;;;;5012039;28;20504;-58
2021/07/02 03:20:31;;;;;;;6.60;4.03;;;15.50;99.90;;;;;;5012771;28;20477;-58
2021/07/02 03:22:59;;;;;;;5.13;4.60;;;15.50;99.90;;;;;;5006520;28;20513;-58
2021/07/02 03:25:26;;;;;;;6.60;5.10;;;15.50;99.90;;;;;;4994650;28;20512;-58
2021/07/02 03:27:54;;;;;;;4.10;3.70;;;15.50;99.90;;;;;;4993337;28;20537;-58
2021/07/02 03:30:21;;;;;;;5.50;5.00;;;15.40;99.90;;;;;;4993161;28;20540;-58
2021/07/02 03:32:48;;;;;;;5.33;4.53;;;15.40;99.90;;;;;;4992845;28;20462;-58
2021/07/02 03:35:15;;;;;;;4.97;4.47;;;15.40;99.90;;;;;;4994450;28;20484;-58
2021/07/02 03:37:42;;;;;;;7.50;5.23;;;15.40;99.90;;;;;;4993083;28;20450;-58
2021/07/02 03:40:13;;;;;;;4.43;4.03;;;15.40;99.90;;;;;;4993172;28;20470;-58
2021/07/02 03:42:40;;;;;;;4.50;4.10;;;15.40;99.90;;;;;;4993859;28;20584;-59
2021/07/02 03:45:08;;;;;;;5.00;4.03;;;15.30;99.90;;;;;;4992918;28;20454;-58
2021/07/02 03:47:35;;;;;;;4.93;4.30;;;15.40;99.90;;;;;;4993080;28;20545;-57
2021/07/02 03:50:02;;;;;;;5.43;4.67;;;15.40;99.90;;;;;;4992773;28;20482;-57
2021/07/02 03:52:29;;;;;;;5.03;4.53;;;15.30;99.90;;;;;;4992613;28;20454;-57
2021/07/02 03:54:56;;;;;;;6.53;4.00;;;15.40;99.90;;;;;;4992938;28;20536;-57
2021/07/02 03:57:25;;;;;;;5.00;3.90;;;15.40;99.90;;;;;;4993880;28;20955;-57
2021/07/02 03:59:53;;;;;;;6.43;4.13;;;15.40;99.90;;;;;;4992579;28;20466;-57
2021/07/02 04:02:21;;;;;;;4.87;4.37;;;15.40;99.90;;;;;;4992742;28;20451;-57
2021/07/02 04:04:48;;;;;;;4.70;4.10;;;15.40;99.90;;;;;;4992874;28;20533;-57
2021/07/02 04:07:16;;;;;;;4.27;3.83;;;15.40;99.90;;;;;;4992735;28;20538;-57
2021/07/02 04:09:43;;;;;;;4.20;3.80;;;15.50;99.90;;;;;;5005589;28;20528;-57
2021/07/02 04:12:12;;;;;;;4.73;4.23;;;15.50;99.90;;;;;;5004848;28;20445;-57
2021/07/02 04:14:41;;;;;;;4.43;4.03;;;15.50;99.90;;;;;;5012335;28;20544;-57
2021/07/02 04:17:08;;;;;;;4.90;4.13;;;15.60;99.90;;;;;;5005250;28;20484;-56
2021/07/02 04:19:36;;;;;;;3.90;3.50;;;15.50;99.90;;;;;;5010305;28;20833;-56
2021/07/02 04:22:03;;;;;;;4.77;3.70;;;15.50;99.90;;;;;;5001512;28;20453;-57
2021/07/02 04:24:30;;;;;;;4.27;3.87;;;15.60;99.90;;;;;;5011905;28;20541;-57
2021/07/02 04:26:57;;;;;;;5.77;3.77;;;15.60;99.90;;;;;;5011819;28;20573;-57
2021/07/02 04:29:26;;;;;;;4.30;3.50;;;15.60;99.90;;;;;;5012180;28;20469;-57
2021/07/02 04:31:54;;;;;;;5.27;3.90;;;15.70;99.90;;;;;;5010323;28;20951;-56
2021/07/02 04:34:21;;;;;;;3.57;3.27;;;15.70;99.90;;;;;;5005941;28;20950;-56
2021/07/02 04:36:48;;;;;;;5.17;3.40;;;15.70;99.90;;;;;;5011783;28;20465;-57
2021/07/02 04:39:18;;;;;;;5.10;3.93;;;15.80;99.90;;;;;;4997373;28;20528;-57
2021/07/02 04:41:45;;;;;;;4.30;3.90;;;15.80;99.90;;;;;;4992858;28;20482;-56
2021/07/02 04:44:12;;;;;;;4.23;3.47;;;15.80;99.90;;;;;;4991797;28;20883;-56
2021/07/02 04:46:39;;;;;;;4.63;4.13;;;15.90;99.90;;;;;;5011676;28;20453;-56
2021/07/02 04:49:07;;;;;;;4.00;3.60;;;15.90;99.90;;;;;;5009889;28;20484;-56
2021/07/02 04:51:34;;;;;;;3.90;3.53;;;15.80;99.90;;;;;;4997001;28;20450;-56
2021/07/02 04:54:01;;;;;;;4.80;3.70;;;15.90;99.90;;;;;;4998728;28;20455;-57
2021/07/02 04:56:29;;;;;;;5.10;4.60;;;16.00;99.90;;;;;;5001038;28;21149;-56
2021/07/02 04:58:56;;;;;;;4.17;3.50;;;16.00;99.90;;;;;;5012718;28;20971;-57
2021/07/02 05:01:24;;;;;;;4.40;4.00;;;16.00;99.90;;;;;;5016007;28;20459;-57
2021/07/02 05:03:51;;;;;;;4.50;3.40;;;16.00;99.90;;;;;;5028854;28;20508;-56
2021/07/02 05:06:20;;;;;;;3.63;3.23;;;15.90;99.90;;;;;;5021198;28;20488;-57
2021/07/02 05:08:47;;;;;;;3.80;3.40;;;16.00;99.90;;;;;;5026856;28;20480;-55
2021/07/02 05:11:14;;;;;;;4.50;3.53;;;16.10;99.90;;;;;;5026959;28;20699;-56
2021/07/02 05:13:42;;;;;;;5.50;3.10;;;16.10;99.90;;;;;;5025191;28;20492;-57
2021/07/02 05:16:09;;;;;;;3.73;3.33;;;16.20;99.90;;;;;;5020620;28;20473;-55
2021/07/02 05:18:36;;;;;;;5.20;3.37;;;16.50;99.90;;;;;;5011829;28;20537;-56
2021/07/02 05:21:04;;;;;;;3.43;3.13;;;17.50;99.90;;;;;;5011912;28;20507;-59
2021/07/02 05:23:32;;;;;;;4.30;3.80;;;18.00;99.90;;;;;;5011261;28;20454;-57
2021/07/02 05:25:59;;;;;;;6.47;3.73;;;18.00;99.90;;;;;;5011236;28;20532;-57
2021/07/02 05:28:26;;;;;;;3.80;3.40;;;17.90;99.90;;;;;;4998843;28;20477;-58
2021/07/02 05:30:53;;;;;;;4.67;4.23;;;17.80;99.90;;;;;;5010855;28;20906;-57
2021/07/02 05:33:20;;;;;;;4.87;4.00;;;17.50;99.90;;;;;;5010389;28;21013;-56
2021/07/02 05:35:47;;;;;;;4.17;3.77;;;17.30;99.90;;;;;;5011320;28;20461;-56
2021/07/02 05:38:15;;;;;;;3.60;3.30;;;17.30;99.90;;;;;;5001211;28;20455;-57
2021/07/02 05:40:44;;;;;;;4.73;3.80;;;17.20;99.90;;;;;;5008190;28;20473;-57
2021/07/02 05:43:11;;;;;;;5.13;4.07;;;17.20;99.90;;;;;;5003246;28;20446;-56
2021/07/02 05:45:38;;;;;;;5.30;4.50;;;17.10;99.90;;;;;;4995526;28;20453;-56
2021/07/02 05:48:06;;;;;;;11.23;4.57;;;17.00;99.90;;;;;;5005198;28;21000;-57
2021/07/02 05:50:33;;;;;;;4.33;3.93;;;17.00;99.90;;;;;;5005087;28;20503;-57
2021/07/02 05:53:00;;;;;;;6.37;5.27;;;17.10;99.90;;;;;;5013939;28;20490;-57
2021/07/02 05:55:27;;;;;;;5.90;4.60;;;17.30;99.90;;;;;;5014630;28;20998;-57
2021/07/02 05:57:55;;;;;;;6.53;4.57;;;17.30;99.90;;;;;;5010592;28;20865;-58
2021/07/02 06:00:23;;;;;;;5.63;4.50;;;17.30;99.90;;;;;;4995013;28;20470;-58
2021/07/02 06:02:50;;;;;;;6.67;4.10;;;17.30;99.90;;;;;;4999026;28;20449;-57
2021/07/02 06:05:17;;;;;;;6.73;4.80;;;17.40;99.90;;;;;;5013927;28;20959;-58
2021/07/02 06:07:45;;;;;;;5.50;4.47;;;17.70;99.90;;;;;;5014264;28;20970;-57
2021/07/02 06:10:13;;;;;;;8.20;3.90;;;18.20;99.90;;;;;;5014204;28;20470;-58
2021/07/02 06:12:40;;;;;;;3.47;3.17;;;18.40;99.90;;;;;;5012475;28;20508;-56
2021/07/02 06:15:11;;;;;;;4.73;3.70;;;18.40;99.90;;;;;;5011931;28;20453;-58
2021/07/02 06:17:38;;;;;;;5.00;3.50;;;18.30;99.90;;;;;;5012127;28;20446;-58
2021/07/02 06:20:06;;;;;;;3.90;3.50;;;18.30;99.90;;;;;;5009887;28;20481;-57
2021/07/02 06:22:33;;;;;;;5.33;3.80;;;18.40;99.90;;;;;;4995310;28;20462;-57
2021/07/02 06:25:00;;;;;;;6.43;3.13;;;18.50;99.90;;;;;;4998971;28;20927;-57
2021/07/02 06:27:26;;;;;;;3.10;2.90;;;19.10;99.90;;;;;;5006185;28;20879;-58
2021/07/02 06:29:53;;;;;;;2.90;2.63;;;20.30;99.90;;;;;;5013567;28;20477;-57
2021/07/02 06:32:22;;;;;;;2.90;2.70;;;21.80;99.90;;;;;;5013721;28;20510;-57
2021/07/02 06:34:49;;;;;;;5.30;3.30;;;23.20;99.90;;;;;;5013836;28;20511;-58
2021/07/02 06:37:16;;;;;;;4.10;3.70;;;23.90;99.90;;;;;;5013363;28;20453;-57
2021/07/02 06:39:43;;;;;;;6.40;4.10;;;23.70;99.90;;;;;;5013855;28;20495;-58
2021/07/02 06:42:10;;;;;;;3.77;3.47;;;22.90;99.90;;;;;;5013559;28;20468;-58
2021/07/02 06:44:37;;;;;;;3.10;2.90;;;22.60;99.90;;;;;;5013632;28;20876;-58
2021/07/02 06:47:05;;;;;;;4.47;3.50;;;23.10;99.90;;;;;;5011962;28;20519;-58
2021/07/02 06:49:33;;;;;;;3.60;3.30;;;23.50;99.90;;;;;;5001205;28;20490;-58
2021/07/02 06:52:00;;;;;;;3.67;3.37;;;24.20;99.90;;;;;;4992565;28;20948;-58
2021/07/02 06:54:27;;;;;;;3.67;3.37;;;24.80;99.90;;;;;;5012762;28;20971;-58
2021/07/02 06:57:03;;;;;;;4.63;3.93;;;24.70;99.90;;;;;;5013170;28;20454;-57
2021/07/02 06:59:33;;;;;;;3.77;3.47;;;24.60;99.90;;;;;;5013377;28;20469;-57
2021/07/02 07:02:01;;;;;;;4.30;3.90;;;23.90;99.90;;;;;;5012753;28;20537;-58
2021/07/02 07:04:34;;;;;;;5.93;5.17;;;23.60;99.90;;;;;;5012028;28;20449;-58
2021/07/02 07:07:03;;;;;;;5.50;4.70;;;22.00;99.90;;;;;;5012730;28;20453;-58
2021/07/02 07:09:30;;;;;;;6.40;5.47;;;21.50;99.90;;;;;;5012894;28;20934;-58
2021/07/02 07:11:57;;;;;;;6.10;4.70;;;21.00;99.90;;;;;;5012883;28;20939;-57
2021/07/02 07:14:24;;;;;;;4.77;4.37;;;21.00;99.90;;;;;;5013027;28;20508;-58
2021/07/02 07:16:51;;;;;;;5.50;4.40;;;21.10;99.90;;;;;;5012840;28;20465;-58
2021/07/02 07:19:22;;;;;;;5.00;4.50;;;21.00;99.90;;;;;;5012418;28;20527;-58
2021/07/02 07:21:49;;;;;;;4.57;3.80;;;20.70;99.90;;;;;;5012787;28;21045;-58
2021/07/02 07:24:17;;;;;;;6.20;4.23;;;20.70;99.90;;;;;;5012855;28;20449;-58
2021/07/02 07:26:44;;;;;;;4.03;3.63;;;20.50;99.90;;;;;;5012728;28;20449;-58
2021/07/02 07:29:11;;;;;;;5.30;4.80;;;20.40;99.90;;;;;;5011338;28;20539;-57
2021/07/02 07:31:38;;;;;;;6.90;5.20;;;20.20;99.90;;;;;;5012664;28;20457;-58
2021/07/02 07:34:05;;;;;;;4.80;4.30;;;20.10;99.90;;;;;;5012439;28;20867;-57
2021/07/02 07:36:35;;;;;;;7.67;4.60;;;20.20;99.90;;;;;;5012681;28;20481;-58
2021/07/02 07:39:02;;;;;;;7.57;5.73;;;20.70;99.90;;;;;;4993165;28;20466;-57
2021/07/02 07:41:30;;;;;;;8.70;6.80;;;20.80;99.90;;;;;;4993019;28;20500;-57
2021/07/02 07:43:57;;;;;;;8.07;7.10;;;20.60;99.90;;;;;;4992696;28;20458;-57
2021/07/02 07:46:27;;;;;;;6.13;5.53;;;21.00;99.90;;;;;;4992904;28;20807;-57
2021/07/02 07:48:54;;;;;;;10.20;6.37;;;21.80;99.90;;;;;;5032257;22;20512;-50
2021/07/02 07:51:32;;;;;;;9.00;6.33;;;22.80;99.90;;;;;;5032180;28;20448;-50
2021/07/02 07:54:00;;;;;;;9.43;5.60;;;23.70;99.90;;;;;;5029154;28;20507;-51
2021/07/02 07:56:29;;;;;;;7.70;5.73;;;23.80;99.90;;;;;;5031625;28;20495;-50
2021/07/02 07:58:58;;;;;;;8.93;5.77;;;23.70;99.90;;;;;;5031583;28;20451;-50
2021/07/02 08:01:25;;;;;;;11.70;6.37;;;23.70;99.90;;;;;;5026674;28;20453;-50
2021/07/02 08:03:52;;;;;;;7.10;5.60;;;23.50;99.90;;;;;;5024837;28;20460;-50
2021/07/02 08:06:20;;;;;;;7.90;6.33;;;22.80;99.90;;;;;;5012386;28;20490;-50
2021/07/02 08:08:47;;;;;;;6.37;5.70;;;22.80;99.90;;;;;;5012269;28;20477;-50
2021/07/02 08:11:14;;;;;;;6.97;6.10;;;23.50;99.90;;;;;;5012207;28;20449;-50
2021/07/02 08:13:41;;;;;;;8.97;6.00;;;23.60;99.90;;;;;;5024868;28;20531;-50
2021/07/02 08:16:09;;;;;;;9.17;6.60;;;23.60;99.90;;;;;;5032051;28;20595;-50
2021/07/02 08:18:36;;;;;;;6.97;6.17;;;23.30;99.90;;;;;;5031955;28;20502;-50
2021/07/02 08:21:03;;;;;;;8.47;6.10;;;22.90;99.90;;;;;;5031658;28;20473;-50
2021/07/02 08:23:30;;;;;;;6.10;5.33;;;22.90;99.90;;;;;;5031456;28;20540;-51
2021/07/02 08:25:57;;;;;;;8.57;5.77;;;23.20;99.90;;;;;;5015833;28;20450;-51
2021/07/02 08:31:10;;;;;;;6.50;5.53;;;25.10;99.90;;;;;;5012036;28;20432;-51
2021/07/02 08:33:36;;;;;;;11.60;7.00;;;25.90;99.90;;;;;;5011884;28;20869;-51
2021/07/02 08:36:04;;;;;;;6.70;5.63;;;25.60;99.90;;;;;;5011856;28;21176;-51
2021/07/02 08:38:31;;;;;;;6.93;5.60;;;26.00;99.90;;;;;;5018719;28;20879;-51
2021/07/02 08:40:58;;;;;;;5.97;5.37;;;26.20;99.90;;;;;;5031383;28;20472;-50
2021/07/02 08:43:25;;;;;;;6.60;5.03;;;27.00;99.90;;;;;;5031309;28;20456;-51
2021/07/02 08:45:54;;;;;;;7.17;6.17;;;27.10;99.90;;;;;;5031166;28;20930;-50
2021/07/02 08:48:24;;;;;;;7.40;5.30;;;27.30;99.90;;;;;;5030471;28;20476;-51
2021/07/02 08:50:54;;;;;;;6.67;6.00;;;27.30;99.90;;;;;;5030294;28;20476;-49
2021/07/02 08:53:21;;;;;;;6.70;5.97;;;27.00;99.90;;;;;;5025001;28;20452;-51
2021/07/02 08:55:48;;;;;;;8.10;6.10;;;26.90;99.90;;;;;;5031162;28;20511;-51
2021/07/02 08:58:15;;;;;;;7.70;6.40;;;26.60;99.90;;;;;;5031123;28;20471;-51
2021/07/02 09:00:43;;;;;;;7.03;5.90;;;26.20;99.90;;;;;;5027201;28;20546;-50
2021/07/02 09:03:28;;;;;;;7.73;5.97;;;26.10;99.90;;;;;;5029568;28;20507;-51
2021/07/02 09:05:56;;;;;;;7.43;5.80;;;25.30;99.90;;;;;;5027899;28;20507;-50
2021/07/02 09:08:24;;;;;;;7.03;5.63;;;25.90;99.90;;;;;;5031208;28;20484;-50
2021/07/02 09:10:51;;;;;;;9.33;6.03;;;25.90;99.90;;;;;;5031111;28;20468;-50
2021/07/02 09:13:18;;;;;;;6.80;5.63;;;26.20;99.90;;;;;;5031026;28;20506;-51
2021/07/02 09:15:47;;;;;;;6.27;5.67;;;25.80;99.90;;;;;;5034528;28;20510;-51
2021/07/02 09:18:15;;;;;;;6.37;5.77;;;26.60;99.90;;;;;;5029613;28;20457;-51
2021/07/02 09:20:46;;;;;;;8.17;5.67;;;27.00;99.90;;;;;;5015636;28;20967;-51
2021/07/02 09:23:14;;;;;;;8.40;6.00;;;27.40;99.90;;;;;;5015169;28;20463;-50
2021/07/02 09:25:47;;;;;;;7.07;6.37;;;26.70;99.90;;;;;;5015540;28;20457;-50
2021/07/02 09:28:15;;;;;;;7.03;6.13;;;26.90;99.90;;;;;;5027887;28;20475;-51
2021/07/02 09:30:44;;;;;;;10.40;5.77;;;26.90;99.90;;;;;;5033657;28;20526;-50
2021/07/02 09:33:12;;;;;;;6.40;5.40;;;27.00;99.90;;;;;;5034335;28;20453;-51
2021/07/02 09:35:45;;;;;;;7.43;5.67;;;27.20;99.90;;;;;;5035531;28;20487;-50
2021/07/02 09:38:16;;;;;;;8.00;5.37;;;27.30;99.90;;;;;;5035132;28;20997;-50
2021/07/02 09:40:44;;;;;;;5.67;5.17;;;26.80;99.90;;;;;;5034812;28;21068;-50
2021/07/02 09:43:13;;;;;;;6.17;5.57;;;27.00;99.90;;;;;;5034649;28;20510;-50
2021/07/02 09:45:49;;;;;;;9.27;5.93;;;26.40;99.90;;;;;;5032991;28;20452;-50
2021/07/02 09:48:18;;;;;;;7.30;6.30;;;25.80;99.90;;;;;;5022610;28;21046;-50
2021/07/02 09:50:47;;;;;;;6.50;5.80;;;25.40;99.90;;;;;;5022038;28;20555;-50
2021/07/02 09:53:18;;;;;;;8.90;5.93;;;25.60;99.90;;;;;;5033020;28;20510;-50
2021/07/02 09:55:47;;;;;;;6.30;5.33;;;24.80;99.90;;;;;;5031585;28;20946;-50
2021/07/02 09:58:15;;;;;;;9.93;6.37;;;25.10;99.90;;;;;;5029116;28;20456;-49
2021/07/02 10:00:45;;;;;;;6.90;5.80;;;25.10;99.90;;;;;;5031465;28;20461;-50
2021/07/02 10:03:13;;;;;;;6.10;5.50;;;24.40;99.90;;;;;;5028565;28;20536;-50
2021/07/02 10:05:49;;;;;;;9.73;6.07;;;24.20;99.90;;;;;;5033143;28;20444;-50
2021/07/02 10:08:18;;;;;;;10.83;6.10;;;25.00;99.90;;;;;;5032802;28;20957;-50
2021/07/02 10:10:46;;;;;;;6.50;5.80;;;26.00;99.90;;;;;;5032645;28;20477;-51
2021/07/02 10:13:13;;;;;;;6.57;5.77;;;25.30;99.90;;;;;;5033030;28;20449;-50
2021/07/02 10:15:42;;;;;;;6.70;5.30;;;25.60;99.90;;;;;;5028255;28;20870;-50
2021/07/02 10:18:12;;;;;;;7.30;6.30;;;25.70;99.90;;;;;;5032729;28;20951;-50
2021/07/02 10:20:41;;;;;;;5.73;5.13;;;25.50;99.90;;;;;;5032637;28;20465;-50
2021/07/02 10:23:11;;;;;;;6.17;5.57;;;26.10;99.90;;;;;;5032580;28;20907;-50
2021/07/02 10:25:42;;;;;;;7.20;5.70;;;26.30;99.90;;;;;;5032431;28;20856;-50
2021/07/02 10:28:11;;;;;;;6.60;5.97;;;25.90;99.90;;;;;;5032928;28;20444;-50
2021/07/02 10:30:40;;;;;;;9.10;5.47;;;25.80;99.90;;;;;;5032547;28;20495;-51
2021/07/02 10:33:07;;;;;;;6.70;5.80;;;26.40;99.90;;;;;;5030512;28;20567;-50
2021/07/02 10:35:35;;;;;;;6.70;6.00;;;26.30;99.90;;;;;;5031445;28;20444;-50
2021/07/02 10:38:05;;;;;;;6.43;5.43;;;26.50;99.90;;;;;;5032669;28;20445;-50
2021/07/02 10:40:51;;;;;;;6.60;5.70;;;25.80;99.90;;;;;;5028571;28;20982;-50
2021/07/02 10:43:21;;;;;;;7.67;6.07;;;25.20;99.90;;;;;;5032103;28;20444;-50
2021/07/02 10:46:11;;;;;;;7.63;5.80;;;25.90;99.90;;;;;;5032081;28;20498;-51
2021/07/02 10:48:51;;;;;;;7.37;5.87;;;26.20;99.90;;;;;;5027726;28;20955;-51
2021/07/02 10:51:44;;;;;;;7.10;6.33;;;26.70;99.90;;;;;;5032439;28;20441;-51
2021/07/02 10:54:34;;;;;;;7.73;6.47;;;26.40;99.90;;;;;;5031853;28;20437;-50
2021/07/02 10:57:13;;;;;;;7.53;6.20;;;26.50;99.90;;;;;;5028237;28;20494;-50
2021/07/02 11:00:16;;;;;;;7.30;6.20;;;26.30;99.90;;;;;;5031379;28;20867;-50
2021/07/02 11:02:44;;;;;;;7.10;6.40;;;26.50;99.90;;;;;;5031277;28;20869;-50
2021/07/02 11:05:33;;;;;;;9.07;7.50;;;25.50;99.90;;;;;;5032128;28;20942;-50
2021/07/02 11:08:00;;;;;;;12.23;7.47;;;24.60;99.90;;;;;;5032281;28;20973;-50
2021/07/02 11:10:52;;;;;;;8.67;7.00;;;23.80;99.90;;;;;;5032610;28;20576;-50
2021/07/02 11:13:21;;;;;;;7.13;6.43;;;23.60;99.90;;;;;;5031621;28;20445;-50
2021/07/02 11:16:08;;;;;;;8.30;7.00;;;23.40;99.90;;;;;;5028622;28;20452;-49
2021/07/02 11:18:44;;;;;;;8.07;6.33;;;23.40;99.90;;;;;;5031557;28;20491;-50
2021/07/02 11:21:17;;;;;;;7.30;5.93;;;23.50;99.90;;;;;;5031505;28;20945;-51
2021/07/02 11:23:44;;;;;;;8.50;6.60;;;23.10;99.90;;;;;;5031552;28;20536;-50
2021/07/02 11:26:14;;;;;;;9.37;6.90;;;23.50;99.90;;;;;;5031806;28;20445;-50
2021/07/02 11:28:50;;;;;;;8.13;6.37;;;23.10;99.90;;;;;;5031440;28;20449;-50
2021/07/02 11:31:18;;;;;;;7.63;6.70;;;23.40;99.90;;;;;;5025832;28;20506;-50
2021/07/02 11:33:46;;;;;;;7.17;6.33;;;23.30;99.90;;;;;;5026538;28;20951;-50
2021/07/02 11:36:19;;;;;;;7.37;6.43;;;23.10;99.90;;;;;;5031669;28;20502;-49
2021/07/02 11:38:55;;;;;;;7.83;6.53;;;23.00;99.90;;;;;;5032283;28;20456;-49
2021/07/02 11:41:28;;;;;;;8.17;7.10;;;23.10;99.90;;;;;;5031701;28;20453;-50
2021/07/02 11:43:58;;;;;;;7.47;6.63;;;23.10;99.90;;;;;;5022245;28;20452;-49
2021/07/02 11:46:25;;;;;;;10.10;7.20;;;23.10;99.90;;;;;;5032539;28;20876;-50
2021/07/02 11:48:54;;;;;;;7.60;5.83;;;23.10;99.90;;;;;;5031201;28;21206;-50
2021/07/02 11:51:24;;;;;;;8.93;6.90;;;23.30;99.90;;;;;;5032349;28;20881;-50
2021/07/02 11:53:53;;;;;;;9.90;6.87;;;23.50;99.90;;;;;;5032003;28;20457;-49
2021/07/02 11:56:21;;;;;;;7.27;6.50;;;23.00;99.90;;;;;;5031971;28;20453;-50
2021/07/02 11:58:49;;;;;;;8.30;6.67;;;22.90;99.90;;;;;;5032214;28;20444;-50
2021/07/02 12:01:20;;;;;;;7.40;6.63;;;23.30;99.90;;;;;;5029685;28;20459;-50
2021/07/02 12:03:50;;;;;;;7.70;6.30;;;23.10;99.90;;;;;;5017917;28;21115;-50
2021/07/02 12:06:24;;;;;;;8.30;6.20;;;23.10;99.90;;;;;;5023523;28;20461;-49
2021/07/02 12:08:53;;;;;;;7.63;6.30;;;23.50;99.90;;;;;;5012884;28;20479;-49
2021/07/02 12:11:33;;;;;;;9.10;6.73;;;23.40;99.90;;;;;;5022059;28;20481;-49
2021/07/02 12:14:00;;;;;;;8.90;5.80;;;23.00;99.90;;;;;;5012447;28;20453;-49
2021/07/02 12:16:37;;;;;;;10.17;6.97;;;23.10;99.90;;;;;;5012635;28;20449;-49
2021/07/02 12:19:06;;;;;;;6.90;5.93;;;23.20;99.90;;;;;;5024064;28;20989;-50
2021/07/02 12:21:34;;;;;;;7.13;6.20;;;23.20;99.90;;;;;;5031913;28;20543;-49
2021/07/02 12:24:04;;;;;;;7.43;6.30;;;23.30;99.90;;;;;;5023014;28;20452;-50
2021/07/02 12:26:34;;;;;;;7.07;6.07;;;23.50;99.90;;;;;;5022118;28;20511;-50
2021/07/02 12:29:12;;;;;;;12.60;7.27;;;23.30;99.90;;;;;;5019813;28;20444;-50
2021/07/02 12:31:47;;;;;;;6.90;5.90;;;23.20;99.90;;;;;;5031935;28;21014;-50
2021/07/02 12:34:17;;;;;;;9.20;5.90;;;22.90;99.90;;;;;;5030208;28;20465;-50
2021/07/02 12:37:03;;;;;;;8.50;7.10;;;22.80;99.90;;;;;;5029055;28;20511;-49
2021/07/02 12:39:31;;;;;;;7.90;6.00;;;22.70;99.90;;;;;;5012269;28;20465;-50
2021/07/02 12:42:01;;;;;;;9.00;6.00;;;22.50;99.90;;;;;;5012052;28;20449;-50
2021/07/02 12:44:30;;;;;;;6.87;5.60;;;22.70;99.90;;;;;;5012938;28;21017;-50
2021/07/02 12:46:59;;;;;;;7.30;5.90;;;23.00;99.90;;;;;;5011845;28;20441;-50
2021/07/02 12:49:29;;;;;;;6.83;5.40;;;23.00;99.90;;;;;;5021070;28;20546;-49
2021/07/02 12:52:02;;;;;;;7.70;6.80;;;23.10;99.90;;;;;;5035637;28;20973;-49
2021/07/02 12:54:48;;;;;;;7.60;5.73;;;22.70;99.90;;;;;;5031968;28;20454;-50
2021/07/02 12:57:27;;;;;;;7.43;5.80;;;22.70;99.90;;;;;;5016090;28;20540;-50